Time,TemperatureF,DewpointF,PressureIn,WindDirection,WindDirectionDegrees,WindSpeedMPH,WindSpeedGustMPH,Humidity,HourlyPrecipIn,Conditions,Clouds,dailyrainin,SoftwareType,DateUTC
2013-03-08 00:00:00,29.5,26.4,30.19,NNW,340,4.9,4.9,88,0.00,,,0.00,VWS V14.01,2013-03-08 05:00:00,
2013-03-08 00:05:00,29.5,26.4,30.19,NW,315,4.0,5.4,88,0.00,,,0.00,VWS V14.01,2013-03-08 05:05:00,
2013-03-08 00:09:00,29.5,26.4,30.19,NW,325,3.6,4.0,88,0.00,,,0.00,VWS V14.01,2013-03-08 05:09:00,
2013-03-08 00:14:00,29.5,26.4,30.19,NNW,344,3.1,5.8,88,0.00,,,0.00,VWS V14.01,2013-03-08 05:14:00,
2013-03-08 00:19:00,29.5,26.4,30.19,NNW,342,3.1,5.4,88,0.00,,,0.00,VWS V14.01,2013-03-08 05:19:00,
2013-03-08 00:24:00,29.5,26.6,30.19,NNW,344,4.9,5.8,89,0.00,,,0.00,VWS V14.01,2013-03-08 05:24:00,
2013-03-08 00:29:00,29.5,26.6,30.19,NW,317,4.0,4.9,89,0.00,,,0.00,VWS V14.01,2013-03-08 05:29:00,
2013-03-08 00:34:00,29.5,26.6,30.19,NNW,340,4.9,6.3,89,0.00,,,0.00,VWS V14.01,2013-03-08 05:34:00,
2013-03-08 00:39:00,29.5,26.6,30.19,NNW,334,4.0,5.4,89,0.00,,,0.00,VWS V14.01,2013-03-08 05:39:00,
2013-03-08 00:44:00,29.5,26.6,30.19,NW,326,3.1,4.9,89,0.00,,,0.00,VWS V14.01,2013-03-08 05:44:00,
2013-03-08 00:49:00,29.5,26.9,30.19,North,350,4.5,4.9,90,0.00,,,0.00,VWS V14.01,2013-03-08 05:49:00,
2013-03-08 00:54:00,29.5,26.9,30.19,North,357,5.4,7.6,90,0.00,,,0.00,VWS V14.01,2013-03-08 05:54:00,
2013-03-08 00:59:00,29.5,26.9,30.19,NW,324,5.4,6.3,90,0.00,,,0.00,VWS V14.01,2013-03-08 05:59:00,
2013-03-08 01:04:00,29.5,26.9,30.19,NNW,340,5.4,8.3,90,0.00,,,0.00,VWS V14.01,2013-03-08 06:04:00,
2013-03-08 01:09:00,29.5,26.9,30.19,NW,323,5.4,7.2,90,0.00,,,0.00,VWS V14.01,2013-03-08 06:09:00,
2013-03-08 01:14:00,29.5,27.2,30.19,NNW,336,4.5,5.8,91,0.00,,,0.00,VWS V14.01,2013-03-08 06:14:00,
2013-03-08 01:19:00,29.5,27.2,30.19,North,9,4.0,4.9,91,0.00,,,0.00,VWS V14.01,2013-03-08 06:19:00,
2013-03-08 01:24:00,29.7,27.4,30.22,North,357,2.7,4.9,91,0.00,,,0.00,VWS V14.01,2013-03-08 06:24:00,
2013-03-08 01:29:00,29.7,27.4,30.22,NW,317,5.4,5.4,91,0.00,,,0.00,VWS V14.01,2013-03-08 06:29:00,
2013-03-08 01:35:00,29.5,27.2,30.19,NNW,346,4.9,5.4,91,0.00,,,0.00,VWS V14.01,2013-03-08 06:35:00,
2013-03-08 01:40:00,29.5,27.2,30.19,NNW,333,3.1,5.4,91,0.00,,,0.00,VWS V14.01,2013-03-08 06:40:00,
2013-03-08 01:45:00,29.5,27.2,30.19,WNW,303,2.7,7.2,91,0.00,,,0.00,VWS V14.01,2013-03-08 06:45:00,
2013-03-08 01:50:00,29.5,27.2,30.19,NNW,334,5.4,6.3,91,0.00,,,0.00,VWS V14.01,2013-03-08 06:50:00,
2013-03-08 01:55:00,29.5,27.2,30.19,North,0,5.8,6.3,91,0.00,,,0.00,VWS V14.01,2013-03-08 06:55:00,
2013-03-08 02:00:00,29.1,26.6,30.19,NNW,344,4.9,6.3,90,0.00,,,0.00,VWS V14.01,2013-03-08 07:00:00,
2013-03-08 02:05:00,28.9,26.4,30.19,NNW,346,3.6,8.1,90,0.00,,,0.00,VWS V14.01,2013-03-08 07:05:00,
2013-03-08 02:10:00,28.9,26.4,30.22,North,357,4.9,4.9,90,0.00,,,0.00,VWS V14.01,2013-03-08 07:10:00,
2013-03-08 02:15:00,29.1,26.6,30.22,North,353,5.4,6.3,90,0.00,,,0.00,VWS V14.01,2013-03-08 07:15:00,
2013-03-08 02:20:00,29.1,26.6,30.22,North,6,3.6,5.4,90,0.00,,,0.00,VWS V14.01,2013-03-08 07:20:00,
2013-03-08 02:25:00,29.1,26.6,30.22,NNW,336,2.7,3.1,90,0.00,,,0.00,VWS V14.01,2013-03-08 07:25:00,
2013-03-08 02:30:00,29.1,26.6,30.22,North,357,4.0,4.0,90,0.00,,,0.00,VWS V14.01,2013-03-08 07:30:00,
2013-03-08 02:35:00,28.9,26.4,30.22,NW,315,5.8,7.6,90,0.00,,,0.00,VWS V14.01,2013-03-08 07:35:00,
2013-03-08 02:40:00,28.9,26.4,30.22,NW,317,5.8,5.8,90,0.00,,,0.00,VWS V14.01,2013-03-08 07:40:00,
2013-03-08 02:45:00,28.9,26.4,30.22,NNW,329,4.5,5.8,90,0.00,,,0.00,VWS V14.01,2013-03-08 07:45:00,
2013-03-08 02:50:00,28.9,26.4,30.22,WNW,301,5.4,5.4,90,0.00,,,0.00,VWS V14.01,2013-03-08 07:50:00,
2013-03-08 02:55:00,28.9,26.4,30.22,NNW,341,3.1,4.9,90,0.00,,,0.00,VWS V14.01,2013-03-08 07:55:00,
2013-03-08 03:00:00,28.8,26.2,30.22,WNW,296,2.7,4.0,90,0.00,,,0.00,VWS V14.01,2013-03-08 08:00:00,
2013-03-08 03:05:00,28.8,26.2,30.22,NW,317,4.9,4.9,90,0.00,,,0.00,VWS V14.01,2013-03-08 08:05:00,
2013-03-08 03:10:00,28.6,26.0,30.22,NW,322,3.6,6.7,90,0.00,,,0.00,VWS V14.01,2013-03-08 08:10:00,
2013-03-08 03:15:00,28.6,26.0,30.22,NNW,334,2.7,5.4,90,0.00,,,0.00,VWS V14.01,2013-03-08 08:15:00,
2013-03-08 03:20:00,28.6,26.0,30.22,NW,314,3.6,5.8,90,0.00,,,0.00,VWS V14.01,2013-03-08 08:20:00,
2013-03-08 03:25:00,28.6,26.3,30.22,NNW,337,5.4,6.7,91,0.00,,,0.00,VWS V14.01,2013-03-08 08:25:00,
2013-03-08 03:30:00,28.6,26.3,30.22,NW,317,6.3,6.7,91,0.00,,,0.00,VWS V14.01,2013-03-08 08:30:00,
2013-03-08 03:35:00,28.6,26.6,30.22,NNW,338,3.1,6.3,92,0.00,,OVC004,0.00,VWS V14.01,2013-03-08 08:35:00,
2013-03-08 03:40:00,28.6,26.6,30.22,NNW,331,3.6,4.0,92,0.00,,OVC004,0.00,VWS V14.01,2013-03-08 08:40:00,
2013-03-08 03:48:00,28.6,26.8,30.22,NNW,331,5.4,6.3,93,0.00,,OVC004,0.00,VWS V14.01,2013-03-08 08:48:00,
2013-03-08 03:53:00,28.6,26.8,30.22,NNW,339,3.6,6.3,93,0.00,,OVC004,0.00,VWS V14.01,2013-03-08 08:53:00,
2013-03-08 03:58:00,28.8,27.0,30.22,NW,323,2.7,5.4,93,0.00,,OVC004,0.00,VWS V14.01,2013-03-08 08:58:00,
2013-03-08 04:03:00,28.8,27.2,30.22,NNW,333,6.3,6.3,94,0.00,,OVC004,0.00,VWS V14.01,2013-03-08 09:03:00,
2013-03-08 04:08:00,28.9,27.4,30.22,NNW,328,4.0,4.9,94,0.00,,OVC004,0.00,VWS V14.01,2013-03-08 09:08:00,
2013-03-08 04:13:00,28.9,27.4,30.22,NNW,335,3.6,6.3,94,0.00,,OVC004,0.00,VWS V14.01,2013-03-08 09:13:00,
2013-03-08 04:18:00,28.9,27.4,30.22,NNW,333,3.1,5.4,94,0.00,,OVC004,0.00,VWS V14.01,2013-03-08 09:18:00,
2013-03-08 04:23:00,28.9,27.2,30.22,NNW,330,3.1,4.9,93,0.00,,OVC004,0.00,VWS V14.01,2013-03-08 09:23:00,
2013-03-08 04:29:00,28.9,27.2,30.22,West,264,4.9,6.7,93,0.00,,OVC004,0.00,VWS V14.01,2013-03-08 09:29:00,
2013-03-08 04:34:00,28.9,27.2,30.22,NW,312,4.9,4.9,93,0.00,,OVC050,0.00,VWS V14.01,2013-03-08 09:34:00,
2013-03-08 04:39:00,28.9,27.2,30.22,NNW,334,4.0,5.4,93,0.00,,OVC050,0.00,VWS V14.01,2013-03-08 09:39:00,
2013-03-08 04:44:00,28.9,27.2,30.22,NW,304,3.6,7.6,93,0.00,,OVC050,0.00,VWS V14.01,2013-03-08 09:44:00,
2013-03-08 04:49:00,28.9,27.2,30.22,NW,318,5.8,6.3,93,0.00,,OVC050,0.00,VWS V14.01,2013-03-08 09:49:00,
2013-03-08 04:54:00,28.9,27.2,30.22,NW,315,5.4,5.8,93,0.00,,OVC050,0.00,VWS V14.01,2013-03-08 09:54:00,
2013-03-08 04:59:00,28.9,27.2,30.22,NW,321,3.1,6.3,93,0.00,,OVC050,0.00,VWS V14.01,2013-03-08 09:59:00,
2013-03-08 05:04:00,28.9,27.2,30.22,North,353,5.8,6.3,93,0.00,,OVC050,0.00,VWS V14.01,2013-03-08 10:04:00,
2013-03-08 05:09:00,28.9,27.2,30.25,NW,325,4.9,5.4,93,0.00,,OVC050,0.00,VWS V14.01,2013-03-08 10:09:00,
2013-03-08 05:14:00,28.9,27.2,30.25,NW,305,3.1,5.8,93,0.00,,OVC050,0.00,VWS V14.01,2013-03-08 10:14:00,
2013-03-08 05:19:00,28.9,27.2,30.25,NNW,329,5.8,5.8,93,0.00,,OVC050,0.00,VWS V14.01,2013-03-08 10:19:00,
2013-03-08 05:24:00,28.9,27.2,30.25,NW,321,4.0,6.3,93,0.00,,OVC050,0.00,VWS V14.01,2013-03-08 10:24:00,
2013-03-08 05:29:00,28.9,27.2,30.25,NNW,337,4.0,4.9,93,0.00,,OVC050,0.00,VWS V14.01,2013-03-08 10:29:00,
2013-03-08 05:34:00,29.1,27.4,30.25,NNW,329,2.2,4.5,93,0.00,,OVC050,0.00,VWS V14.01,2013-03-08 10:34:00,
2013-03-08 05:39:00,29.1,27.4,30.22,NW,319,5.8,5.8,93,0.00,,OVC050,0.00,VWS V14.01,2013-03-08 10:39:00,
2013-03-08 05:44:00,29.1,27.4,30.22,NW,307,3.1,5.4,93,0.00,,OVC050,0.00,VWS V14.01,2013-03-08 10:44:00,
2013-03-08 05:49:00,29.1,27.4,30.22,NW,325,5.8,5.8,93,0.00,,OVC050,0.00,VWS V14.01,2013-03-08 10:49:00,
2013-03-08 05:54:00,29.1,27.4,30.25,NW,316,2.2,5.8,93,0.00,,OVC050,0.00,VWS V14.01,2013-03-08 10:54:00,
2013-03-08 05:59:00,29.1,27.4,30.25,NNW,337,4.9,6.3,93,0.00,,OVC050,0.00,VWS V14.01,2013-03-08 10:59:00,
2013-03-08 06:04:00,29.3,27.3,30.25,NNW,334,4.0,5.4,92,0.00,,OVC050,0.00,VWS V14.01,2013-03-08 11:04:00,
2013-03-08 06:09:00,29.3,27.3,30.25,NNW,332,2.7,5.4,92,0.00,,OVC050,0.00,VWS V14.01,2013-03-08 11:09:00,
2013-03-08 06:14:00,29.3,27.3,30.25,NW,312,4.0,5.8,92,0.00,,OVC050,0.00,VWS V14.01,2013-03-08 11:14:00,
2013-03-08 06:19:00,29.5,27.5,30.25,NNW,336,4.5,4.9,92,0.00,,OVC050,0.00,VWS V14.01,2013-03-08 11:19:00,
2013-03-08 06:24:00,29.5,27.5,30.25,NW,325,4.9,4.9,92,0.00,,OVC050,0.00,VWS V14.01,2013-03-08 11:24:00,
2013-03-08 06:29:00,29.3,27.0,30.25,NW,325,3.6,4.5,91,0.00,,OVC050,0.00,VWS V14.01,2013-03-08 11:29:00,
2013-03-08 06:34:00,29.3,27.0,30.25,NW,319,3.1,5.4,91,0.00,,OVC055,0.00,VWS V14.01,2013-03-08 11:34:00,
2013-03-08 06:39:00,29.5,27.2,30.25,NNW,333,4.9,5.8,91,0.00,,OVC055,0.00,VWS V14.01,2013-03-08 11:39:00,
2013-03-08 06:44:00,29.5,27.2,30.25,NNW,332,4.0,6.7,91,0.00,,OVC055,0.00,VWS V14.01,2013-03-08 11:44:00,
2013-03-08 06:49:00,29.5,27.2,30.25,NNW,332,4.9,6.3,91,0.00,,OVC055,0.00,VWS V14.01,2013-03-08 11:49:00,
2013-03-08 06:54:00,29.5,26.9,30.28,NNW,330,5.8,5.8,90,0.00,,OVC055,0.00,VWS V14.01,2013-03-08 11:54:00,
2013-03-08 06:59:00,29.5,26.9,30.28,NNW,333,4.9,6.3,90,0.00,,OVC055,0.00,VWS V14.01,2013-03-08 11:59:00,
2013-03-08 07:04:00,29.5,26.9,30.28,NW,316,4.0,7.6,90,0.00,,OVC055,0.00,VWS V14.01,2013-03-08 12:04:00,
2013-03-08 07:09:00,29.5,26.9,30.28,NNW,328,3.6,6.7,90,0.00,,OVC055,0.00,VWS V14.01,2013-03-08 12:09:00,
2013-03-08 07:14:00,29.5,26.6,30.28,NW,318,4.5,6.3,89,0.00,,OVC055,0.00,VWS V14.01,2013-03-08 12:14:00,
2013-03-08 07:19:00,29.7,26.8,30.28,NW,307,4.0,8.1,89,0.00,,OVC055,0.00,VWS V14.01,2013-03-08 12:19:00,
2013-03-08 07:24:00,29.7,26.5,30.28,WNW,303,5.8,5.8,88,0.00,,OVC055,0.00,VWS V14.01,2013-03-08 12:24:00,
2013-03-08 07:29:00,29.7,26.5,30.28,NNW,337,3.1,6.3,88,0.00,,OVC055,0.00,VWS V14.01,2013-03-08 12:29:00,
2013-03-08 07:35:00,29.7,26.3,30.28,NNW,335,5.4,6.3,87,0.00,,OVC055,0.00,VWS V14.01,2013-03-08 12:35:00,
2013-03-08 07:40:00,29.8,26.5,30.28,NNW,340,4.0,5.4,87,0.00,,OVC055,0.00,VWS V14.01,2013-03-08 12:40:00,
2013-03-08 07:45:00,29.8,26.2,30.28,NNW,344,5.4,5.4,86,0.00,,OVC055,0.00,VWS V14.01,2013-03-08 12:45:00,
2013-03-08 07:50:00,30.0,26.4,30.28,NNW,332,4.0,5.4,86,0.00,,OVC055,0.00,VWS V14.01,2013-03-08 12:50:00,
2013-03-08 07:55:00,30.2,26.2,30.28,North,357,5.4,6.3,85,0.00,,OVC055,0.00,VWS V14.01,2013-03-08 12:55:00,
2013-03-08 08:00:00,30.2,26.0,30.28,North,353,4.5,5.4,84,0.00,,OVC055,0.00,VWS V14.01,2013-03-08 13:00:00,
2013-03-08 08:05:00,30.4,25.5,30.28,NNW,340,5.8,5.8,82,0.00,,OVC055,0.00,VWS V14.01,2013-03-08 13:05:00,
2013-03-08 08:10:00,30.4,25.0,30.28,North,353,4.5,4.5,80,0.00,,OVC055,0.00,VWS V14.01,2013-03-08 13:10:00,
2013-03-08 08:15:00,30.6,24.8,30.28,North,0,4.0,4.0,79,0.00,,OVC055,0.00,VWS V14.01,2013-03-08 13:15:00,
2013-03-08 08:20:00,30.7,25.0,30.31,North,350,6.3,6.3,79,0.00,,OVC055,0.00,VWS V14.01,2013-03-08 13:20:00,
2013-03-08 08:25:00,30.9,24.9,30.31,North,2,4.0,4.9,78,0.00,,OVC055,0.00,VWS V14.01,2013-03-08 13:25:00,
2013-03-08 08:30:00,30.9,24.3,30.31,North,357,6.3,8.1,76,0.00,,OVC055,0.00,VWS V14.01,2013-03-08 13:30:00,
2013-03-08 08:35:00,31.1,24.1,30.31,North,0,8.1,8.3,75,0.00,,BKN050,0.00,VWS V14.01,2013-03-08 13:35:00,
2013-03-08 08:40:00,31.1,23.8,30.28,North,353,4.0,8.7,74,0.00,,BKN050,0.00,VWS V14.01,2013-03-08 13:40:00,
2013-03-08 08:45:00,31.5,23.5,30.28,North,353,5.4,8.7,72,0.00,,BKN050,0.00,VWS V14.01,2013-03-08 13:45:00,
2013-03-08 08:50:00,31.5,23.5,30.31,North,0,4.0,5.8,72,0.00,,BKN050,0.00,VWS V14.01,2013-03-08 13:50:00,
2013-03-08 08:55:00,31.5,22.8,30.31,North,0,8.7,8.7,70,0.00,,BKN050,0.00,VWS V14.01,2013-03-08 13:55:00,
2013-03-08 09:00:00,31.6,23.0,30.31,North,2,5.4,8.3,70,0.00,,BKN050,0.00,VWS V14.01,2013-03-08 14:00:00,
2013-03-08 09:05:00,31.8,22.5,30.31,North,1,7.6,7.6,68,0.00,,BKN050,0.00,VWS V14.01,2013-03-08 14:05:00,
2013-03-08 09:10:00,32.0,21.9,30.31,North,357,5.4,5.4,66,0.00,,BKN050,0.00,VWS V14.01,2013-03-08 14:10:00,
2013-03-08 09:15:00,32.2,22.5,30.31,NW,321,8.1,8.1,67,0.00,,BKN050,0.00,VWS V14.01,2013-03-08 14:15:00,
2013-03-08 09:20:00,32.2,21.4,30.31,North,0,10.5,10.5,64,0.00,,BKN050,0.00,VWS V14.01,2013-03-08 14:20:00,
2013-03-08 09:25:00,32.4,21.2,30.31,NNW,329,5.4,8.3,63,0.00,,BKN050,0.00,VWS V14.01,2013-03-08 14:25:00,
2013-03-08 09:30:00,32.4,20.8,30.31,NNW,348,5.8,8.3,62,0.00,,BKN050,0.00,VWS V14.01,2013-03-08 14:30:00,
2013-03-08 09:36:00,32.4,20.8,30.31,North,6,5.8,12.3,62,0.00,,BKN130,0.00,VWS V14.01,2013-03-08 14:36:00,
2013-03-08 09:41:00,32.5,19.8,30.31,North,357,8.7,11.0,59,0.00,,BKN130,0.00,VWS V14.01,2013-03-08 14:41:00,
2013-03-08 09:46:00,32.7,19.6,30.31,NW,307,8.1,12.8,58,0.00,,BKN130,0.00,VWS V14.01,2013-03-08 14:46:00,
2013-03-08 09:51:00,32.9,19.8,30.31,North,0,8.1,8.1,58,0.00,,BKN130,0.00,VWS V14.01,2013-03-08 14:51:00,
2013-03-08 09:56:00,32.9,20.2,30.31,North,350,6.3,8.1,59,0.00,,BKN130,0.00,VWS V14.01,2013-03-08 14:56:00,
2013-03-08 10:01:00,32.9,18.9,30.31,North,4,9.2,13.6,56,0.00,,BKN130,0.00,VWS V14.01,2013-03-08 15:01:00,
2013-03-08 10:06:00,33.3,19.3,30.31,North,353,5.4,10.1,56,0.00,,BKN130,0.00,VWS V14.01,2013-03-08 15:06:00,
2013-03-08 10:11:00,33.3,19.3,30.31,NNE,19,8.3,15.9,56,0.00,,BKN130,0.00,VWS V14.01,2013-03-08 15:11:00,
2013-03-08 10:16:00,33.4,18.6,30.31,NNW,339,11.9,11.9,54,0.00,,BKN130,0.00,VWS V14.01,2013-03-08 15:16:00,
2013-03-08 10:21:00,33.4,18.2,30.31,North,357,15.9,15.9,53,0.00,,BKN130,0.00,VWS V14.01,2013-03-08 15:21:00,
2013-03-08 10:26:00,33.6,17.9,30.31,North,353,13.2,13.2,52,0.00,,BKN130,0.00,VWS V14.01,2013-03-08 15:26:00,
2013-03-08 10:31:00,33.8,18.0,30.31,NNE,33,8.3,10.5,52,0.00,,BKN130,0.00,VWS V14.01,2013-03-08 15:31:00,
2013-03-08 10:36:00,34.0,17.8,30.31,NNE,18,8.1,8.3,51,0.00,,BKN200,0.00,VWS V14.01,2013-03-08 15:36:00,
2013-03-08 10:41:00,34.2,17.9,30.31,North,0,10.5,11.0,51,0.00,,BKN200,0.00,VWS V14.01,2013-03-08 15:41:00,
2013-03-08 10:46:00,34.2,18.4,30.31,North,353,8.3,8.3,52,0.00,,BKN200,0.00,VWS V14.01,2013-03-08 15:46:00,
2013-03-08 10:51:00,34.2,17.9,30.28,NE,42,10.5,11.4,51,0.00,,BKN200,0.00,VWS V14.01,2013-03-08 15:51:00,
2013-03-08 10:56:00,34.5,18.7,30.28,North,0,8.3,10.5,52,0.00,,BKN200,0.00,VWS V14.01,2013-03-08 15:56:00,
2013-03-08 11:01:00,34.3,18.1,30.28,NE,35,5.4,8.7,51,0.00,,BKN200,0.00,VWS V14.01,2013-03-08 16:01:00,
2013-03-08 11:06:00,34.5,18.3,30.31,North,357,12.8,19.2,51,0.00,,BKN200,0.00,VWS V14.01,2013-03-08 16:06:00,
2013-03-08 11:11:00,34.7,18.4,30.31,North,2,11.4,12.3,51,0.00,,BKN200,0.00,VWS V14.01,2013-03-08 16:11:00,
2013-03-08 11:16:00,34.9,18.6,30.31,North,357,5.4,13.2,51,0.00,,BKN200,0.00,VWS V14.01,2013-03-08 16:16:00,
2013-03-08 11:21:00,34.9,18.1,30.31,North,350,13.2,15.4,50,0.00,,BKN200,0.00,VWS V14.01,2013-03-08 16:21:00,
2013-03-08 11:26:00,35.1,18.8,30.31,NNW,346,8.3,12.8,51,0.00,,BKN200,0.00,VWS V14.01,2013-03-08 16:26:00,
2013-03-08 11:31:00,35.4,19.1,30.31,NNW,345,6.3,13.2,51,0.00,,BKN200,0.00,VWS V14.01,2013-03-08 16:31:00,
2013-03-08 11:36:00,35.4,18.6,30.31,North,0,15.4,20.1,50,0.00,,BKN200,0.00,VWS V14.01,2013-03-08 16:36:00,
2013-03-08 11:41:00,35.2,18.5,30.31,North,0,10.1,15.0,50,0.00,,BKN200,0.00,VWS V14.01,2013-03-08 16:41:00,
2013-03-08 11:47:00,35.1,18.3,30.31,NNW,342,12.3,15.4,50,0.00,,BKN200,0.00,VWS V14.01,2013-03-08 16:47:00,
2013-03-08 11:52:00,35.4,18.6,30.31,NNE,18,10.1,12.8,50,0.00,,BKN200,0.00,VWS V14.01,2013-03-08 16:52:00,
2013-03-08 11:57:00,35.6,18.8,30.31,NNW,339,6.3,11.4,50,0.00,,BKN200,0.00,VWS V14.01,2013-03-08 16:57:00,
2013-03-08 12:02:00,36.0,19.1,30.31,North,357,15.4,15.4,50,0.00,,BKN200,0.00,VWS V14.01,2013-03-08 17:02:00,
2013-03-08 12:07:00,35.8,19.0,30.31,North,0,12.3,15.4,50,0.00,,BKN200,0.00,VWS V14.01,2013-03-08 17:07:00,
2013-03-08 12:12:00,36.1,19.8,30.31,North,0,7.6,8.3,51,0.00,,BKN200,0.00,VWS V14.01,2013-03-08 17:12:00,
2013-03-08 12:17:00,35.8,19.0,30.31,NNW,339,11.0,13.2,50,0.00,,BKN200,0.00,VWS V14.01,2013-03-08 17:17:00,
2013-03-08 12:22:00,35.4,18.2,30.31,North,0,7.6,10.5,49,0.00,,BKN200,0.00,VWS V14.01,2013-03-08 17:22:00,
2013-03-08 12:27:00,35.6,18.8,30.31,North,10,8.1,11.0,50,0.00,,BKN200,0.00,VWS V14.01,2013-03-08 17:27:00,
2013-03-08 12:32:00,35.8,19.4,30.31,NNW,344,10.5,11.9,51,0.00,,SCT200,0.00,VWS V14.01,2013-03-08 17:32:00,
2013-03-08 12:37:00,35.4,18.6,30.31,North,349,8.1,9.6,50,0.00,,SCT200,0.00,VWS V14.01,2013-03-08 17:37:00,
2013-03-08 12:42:00,35.4,19.1,30.31,NNE,33,8.1,11.0,51,0.00,,SCT200,0.00,VWS V14.01,2013-03-08 17:42:00,
2013-03-08 12:47:00,35.4,19.1,30.31,NNW,343,10.1,11.0,51,0.00,,SCT200,0.00,VWS V14.01,2013-03-08 17:47:00,
2013-03-08 12:52:00,35.4,18.6,30.31,NNW,332,10.5,15.4,50,0.00,,SCT200,0.00,VWS V14.01,2013-03-08 17:52:00,
2013-03-08 12:57:00,35.6,18.8,30.31,North,0,12.8,12.8,50,0.00,,SCT200,0.00,VWS V14.01,2013-03-08 17:57:00,
2013-03-08 13:02:00,35.4,19.6,30.31,NNW,348,7.6,8.1,52,0.00,,SCT200,0.00,VWS V14.01,2013-03-08 18:02:00,
2013-03-08 13:07:00,35.6,18.8,30.28,NNW,344,10.1,15.0,50,0.00,,SCT200,0.00,VWS V14.01,2013-03-08 18:07:00,
2013-03-08 13:12:00,35.6,19.3,30.28,NNW,332,6.3,15.0,51,0.00,,SCT200,0.00,VWS V14.01,2013-03-08 18:12:00,
2013-03-08 13:17:00,35.8,19.4,30.28,NNW,329,8.7,10.5,51,0.00,,SCT200,0.00,VWS V14.01,2013-03-08 18:17:00,
2013-03-08 13:23:00,35.6,18.8,30.28,North,357,8.3,15.0,50,0.00,,SCT200,0.00,VWS V14.01,2013-03-08 18:23:00,
2013-03-08 13:28:00,35.6,18.8,30.28,North,10,6.3,8.7,50,0.00,,SCT200,0.00,VWS V14.01,2013-03-08 18:28:00,
2013-03-08 13:33:00,35.6,19.3,30.28,NNE,24,5.8,10.1,51,0.00,,SCT200,0.00,VWS V14.01,2013-03-08 18:33:00,
2013-03-08 13:38:00,35.8,19.4,30.28,North,357,8.3,12.8,51,0.00,,SCT200,0.00,VWS V14.01,2013-03-08 18:38:00,
2013-03-08 13:43:00,36.0,19.6,30.28,North,353,8.7,10.5,51,0.00,,SCT200,0.00,VWS V14.01,2013-03-08 18:43:00,
2013-03-08 13:48:00,36.1,19.8,30.28,NNW,348,10.5,12.8,51,0.00,,SCT200,0.00,VWS V14.01,2013-03-08 18:48:00,
2013-03-08 13:53:00,36.1,19.8,30.28,NE,39,7.6,15.0,51,0.00,,SCT200,0.00,VWS V14.01,2013-03-08 18:53:00,
2013-03-08 13:58:00,36.1,19.8,30.28,NNW,330,8.7,8.7,51,0.00,,SCT200,0.00,VWS V14.01,2013-03-08 18:58:00,
2013-03-08 14:03:00,36.1,20.2,30.28,North,357,5.8,8.1,52,0.00,,SCT200,0.00,VWS V14.01,2013-03-08 19:03:00,
2013-03-08 14:08:00,36.1,19.8,30.28,North,0,10.1,11.4,51,0.00,,SCT200,0.00,VWS V14.01,2013-03-08 19:08:00,
2013-03-08 14:13:00,36.1,19.8,30.28,North,0,5.8,12.8,51,0.00,,SCT200,0.00,VWS V14.01,2013-03-08 19:13:00,
2013-03-08 14:18:00,36.3,19.5,30.28,NW,322,12.3,15.0,50,0.00,,SCT200,0.00,VWS V14.01,2013-03-08 19:18:00,
2013-03-08 14:23:00,36.1,19.3,30.28,NNW,327,8.3,15.9,50,0.00,,SCT200,0.00,VWS V14.01,2013-03-08 19:23:00,
2013-03-08 14:28:00,36.3,19.5,30.28,North,2,8.3,10.5,50,0.00,,SCT200,0.00,VWS V14.01,2013-03-08 19:28:00,
2013-03-08 14:33:00,36.3,19.5,30.28,NNW,341,7.6,8.7,50,0.00,,SCT200,0.00,VWS V14.01,2013-03-08 19:33:00,
2013-03-08 14:38:00,36.3,19.9,30.28,North,0,7.6,12.8,51,0.00,,SCT200,0.00,VWS V14.01,2013-03-08 19:38:00,
2013-03-08 14:43:00,36.5,20.1,30.28,North,353,8.7,10.5,51,0.00,,SCT200,0.00,VWS V14.01,2013-03-08 19:43:00,
2013-03-08 14:48:00,36.7,20.7,30.28,North,7,7.6,8.3,52,0.00,,SCT200,0.00,VWS V14.01,2013-03-08 19:48:00,
2013-03-08 14:53:00,36.5,20.1,30.28,NNW,346,6.3,12.8,51,0.00,,SCT200,0.00,VWS V14.01,2013-03-08 19:53:00,
2013-03-08 14:58:00,36.7,19.8,30.28,NNW,331,8.7,12.8,50,0.00,,SCT200,0.00,VWS V14.01,2013-03-08 19:58:00,
2013-03-08 15:03:00,36.5,19.6,30.28,North,0,7.6,13.6,50,0.00,,SCT200,0.00,VWS V14.01,2013-03-08 20:03:00,
2013-03-08 15:08:00,36.7,19.8,30.28,NNW,334,11.0,13.2,50,0.00,,SCT200,0.00,VWS V14.01,2013-03-08 20:08:00,
2013-03-08 15:13:00,36.7,19.8,30.28,North,357,7.6,12.3,50,0.00,,SCT200,0.00,VWS V14.01,2013-03-08 20:13:00,
2013-03-08 15:18:00,36.9,19.5,30.28,NW,326,10.1,14.5,49,0.00,,SCT200,0.00,VWS V14.01,2013-03-08 20:18:00,
2013-03-08 15:23:00,36.9,20.0,30.28,North,10,4.9,10.5,50,0.00,,SCT200,0.00,VWS V14.01,2013-03-08 20:23:00,
2013-03-08 15:28:00,36.9,20.0,30.28,North,353,7.6,11.0,50,0.00,,SCT200,0.00,VWS V14.01,2013-03-08 20:28:00,
2013-03-08 15:33:00,36.9,19.5,30.28,North,0,7.6,15.4,49,0.00,,SCT200,0.00,VWS V14.01,2013-03-08 20:33:00,
2013-03-08 15:38:00,36.9,19.0,30.28,NW,322,4.5,11.0,48,0.00,,SCT200,0.00,VWS V14.01,2013-03-08 20:38:00,
2013-03-08 15:43:00,36.7,19.8,30.28,North,357,10.5,11.0,50,0.00,,SCT200,0.00,VWS V14.01,2013-03-08 20:43:00,
2013-03-08 15:48:00,36.7,19.8,30.28,North,0,7.6,12.3,50,0.00,,SCT200,0.00,VWS V14.01,2013-03-08 20:48:00,
2013-03-08 15:53:00,36.7,20.3,30.28,North,353,9.6,9.6,51,0.00,,SCT200,0.00,VWS V14.01,2013-03-08 20:53:00,
2013-03-08 15:58:00,37.0,20.1,30.28,NNW,328,10.5,12.3,50,0.00,,SCT200,0.00,VWS V14.01,2013-03-08 20:58:00,
2013-03-08 16:04:00,36.9,20.0,30.28,NNW,341,7.6,13.2,50,0.00,,BKN200,0.00,VWS V14.01,2013-03-08 21:04:00,
2013-03-08 16:09:00,36.9,20.0,30.28,NW,322,5.4,12.8,50,0.00,,BKN200,0.00,VWS V14.01,2013-03-08 21:09:00,
2013-03-08 16:14:00,36.9,20.0,30.28,NW,325,5.8,6.3,50,0.00,,BKN200,0.00,VWS V14.01,2013-03-08 21:14:00,
2013-03-08 16:19:00,36.9,19.5,30.28,NNW,328,8.3,12.8,49,0.00,,BKN200,0.00,VWS V14.01,2013-03-08 21:19:00,
2013-03-08 16:24:00,36.7,19.8,30.31,North,350,6.7,11.0,50,0.00,,BKN200,0.00,VWS V14.01,2013-03-08 21:24:00,
2013-03-08 16:29:00,36.7,20.3,30.31,NNW,345,8.3,10.5,51,0.00,,BKN200,0.00,VWS V14.01,2013-03-08 21:29:00,
2013-03-08 16:34:00,36.5,19.6,30.31,North,357,5.4,8.3,50,0.00,,BKN200,0.00,VWS V14.01,2013-03-08 21:34:00,
2013-03-08 16:39:00,36.5,20.1,30.31,North,353,8.1,9.2,51,0.00,,BKN200,0.00,VWS V14.01,2013-03-08 21:39:00,
2013-03-08 16:44:00,36.5,19.6,30.31,NNW,338,8.3,11.0,50,0.00,,BKN200,0.00,VWS V14.01,2013-03-08 21:44:00,
2013-03-08 16:49:00,36.5,20.1,30.31,NNW,338,6.3,10.1,51,0.00,,BKN200,0.00,VWS V14.01,2013-03-08 21:49:00,
2013-03-08 16:54:00,36.3,19.9,30.31,North,4,5.4,10.5,51,0.00,,BKN200,0.00,VWS V14.01,2013-03-08 21:54:00,
2013-03-08 16:59:00,36.3,19.9,30.31,North,349,5.8,10.5,51,0.00,,BKN200,0.00,VWS V14.01,2013-03-08 21:59:00,
2013-03-08 17:04:00,36.3,19.5,30.31,NNW,329,6.3,8.7,50,0.00,,SCT200,0.00,VWS V14.01,2013-03-08 22:04:00,
2013-03-08 17:09:00,36.3,19.9,30.31,NW,325,8.3,8.3,51,0.00,,SCT200,0.00,VWS V14.01,2013-03-08 22:09:00,
2013-03-08 17:14:00,36.3,19.5,30.31,WNW,287,5.4,8.7,50,0.00,,SCT200,0.00,VWS V14.01,2013-03-08 22:14:00,
2013-03-08 17:19:00,36.3,19.5,30.31,NW,310,8.1,8.7,50,0.00,,SCT200,0.00,VWS V14.01,2013-03-08 22:19:00,
2013-03-08 17:24:00,36.1,19.8,30.31,NW,323,8.3,8.7,51,0.00,,SCT200,0.00,VWS V14.01,2013-03-08 22:24:00,
2013-03-08 17:29:00,36.1,19.8,30.31,NW,308,7.6,8.7,51,0.00,,SCT200,0.00,VWS V14.01,2013-03-08 22:29:00,
2013-03-08 17:34:00,36.0,19.6,30.31,NW,312,4.0,6.3,51,0.00,,SCT200,0.00,VWS V14.01,2013-03-08 22:34:00,
2013-03-08 17:39:00,35.8,19.9,30.31,NNW,334,5.4,7.6,52,0.00,,SCT200,0.00,VWS V14.01,2013-03-08 22:39:00,
2013-03-08 17:44:00,35.6,19.7,30.31,WNW,288,3.6,5.4,52,0.00,,SCT200,0.00,VWS V14.01,2013-03-08 22:44:00,
2013-03-08 17:49:00,35.6,19.7,30.31,NW,319,6.3,6.3,52,0.00,,SCT200,0.00,VWS V14.01,2013-03-08 22:49:00,
2013-03-08 17:54:00,35.4,20.0,30.31,NW,324,3.6,5.8,53,0.00,,SCT200,0.00,VWS V14.01,2013-03-08 22:54:00,
2013-03-08 17:59:00,34.9,19.9,30.31,NW,308,3.6,4.9,54,0.00,,SCT200,0.00,VWS V14.01,2013-03-08 22:59:00,
2013-03-08 18:05:00,34.7,20.2,30.31,NW,314,4.0,4.0,55,0.00,,SCT270,0.00,VWS V14.01,2013-03-08 23:05:00,
2013-03-08 18:10:00,34.5,20.0,30.31,NW,315,2.7,4.0,55,0.00,,SCT270,0.00,VWS V14.01,2013-03-08 23:10:00,
2013-03-08 18:15:00,34.3,19.9,30.31,NW,312,3.6,3.6,55,0.00,,SCT270,0.00,VWS V14.01,2013-03-08 23:15:00,
2013-03-08 18:20:00,34.0,20.0,30.31,WNW,289,2.7,2.7,56,0.00,,SCT270,0.00,VWS V14.01,2013-03-08 23:20:00,
2013-03-08 18:25:00,34.0,20.0,30.31,WNW,286,0.0,4.0,56,0.00,,SCT270,0.00,VWS V14.01,2013-03-08 23:25:00,
2013-03-08 18:30:00,33.4,20.3,30.31,WNW,289,2.2,3.6,58,0.00,,SCT270,0.00,VWS V14.01,2013-03-08 23:30:00,
2013-03-08 18:35:00,33.4,20.3,30.31,WNW,289,0.0,3.1,58,0.00,,SCT270,0.00,VWS V14.01,2013-03-08 23:35:00,
2013-03-08 18:40:00,33.3,20.1,30.31,WNW,289,0.0,2.7,58,0.00,,SCT270,0.00,VWS V14.01,2013-03-08 23:40:00,
2013-03-08 18:45:00,32.9,20.2,30.31,WNW,289,0.0,2.7,59,0.00,,SCT270,0.00,VWS V14.01,2013-03-08 23:45:00,
2013-03-08 18:50:00,32.7,20.0,30.31,WNW,289,0.0,0.0,59,0.00,,SCT270,0.00,VWS V14.01,2013-03-08 23:50:00,
2013-03-08 18:55:00,32.5,19.8,30.31,WNW,289,0.0,0.0,59,0.00,,SCT270,0.00,VWS V14.01,2013-03-08 23:55:00,
2013-03-08 19:00:00,32.7,20.4,30.31,WNW,289,2.7,2.7,60,0.00,,SCT270,0.00,VWS V14.01,2013-03-09 00:00:00,
2013-03-08 19:05:00,32.5,20.2,30.31,WNW,288,3.1,3.1,60,0.00,,SCT270,0.00,VWS V14.01,2013-03-09 00:05:00,
2013-03-08 19:10:00,32.2,19.9,30.31,WNW,288,0.0,0.0,60,0.00,,SCT270,0.00,VWS V14.01,2013-03-09 00:10:00,
2013-03-08 19:15:00,32.4,20.4,30.31,WNW,288,0.0,0.0,61,0.00,,SCT270,0.00,VWS V14.01,2013-03-09 00:15:00,
2013-03-08 19:20:00,32.2,20.3,30.31,WSW,253,3.1,3.1,61,0.00,,SCT270,0.00,VWS V14.01,2013-03-09 00:20:00,
2013-03-08 19:25:00,32.2,20.3,30.31,WNW,283,0.0,2.2,61,0.00,,SCT270,0.00,VWS V14.01,2013-03-09 00:25:00,
2013-03-08 19:30:00,32.2,20.3,30.31,WNW,283,0.0,0.0,61,0.00,,SCT270,0.00,VWS V14.01,2013-03-09 00:30:00,
2013-03-08 19:35:00,32.0,20.1,30.31,West,276,0.0,3.6,61,0.00,,SCT270,0.00,VWS V14.01,2013-03-09 00:35:00,
2013-03-08 19:41:00,31.8,20.3,30.31,West,275,2.2,3.6,62,0.00,,SCT270,0.00,VWS V14.01,2013-03-09 00:41:00,
2013-03-08 19:46:00,31.8,20.3,30.31,West,275,3.1,3.6,62,0.00,,SCT270,0.00,VWS V14.01,2013-03-09 00:46:00,
2013-03-08 19:51:00,31.6,20.1,30.31,West,275,3.6,3.6,62,0.00,,SCT270,0.00,VWS V14.01,2013-03-09 00:51:00,
2013-03-08 19:56:00,31.5,20.0,30.31,West,275,2.2,2.2,62,0.00,,SCT270,0.00,VWS V14.01,2013-03-09 00:56:00,
2013-03-08 20:01:00,31.5,20.0,30.31,West,275,0.0,3.1,62,0.00,,SCT270,0.00,VWS V14.01,2013-03-09 01:01:00,
2013-03-08 20:06:00,31.3,20.2,30.31,West,275,2.7,2.7,63,0.00,,SCT270,0.00,VWS V14.01,2013-03-09 01:06:00,
2013-03-08 20:11:00,31.3,20.2,30.31,West,275,2.2,2.2,63,0.00,,SCT270,0.00,VWS V14.01,2013-03-09 01:11:00,
2013-03-08 20:16:00,31.1,20.0,30.31,West,275,2.2,2.7,63,0.00,,SCT270,0.00,VWS V14.01,2013-03-09 01:16:00,
2013-03-08 20:21:00,31.1,20.0,30.34,West,275,0.0,0.0,63,0.00,,SCT270,0.00,VWS V14.01,2013-03-09 01:21:00,
2013-03-08 20:26:00,30.7,19.6,30.34,West,275,0.0,0.0,63,0.00,,SCT270,0.00,VWS V14.01,2013-03-09 01:26:00,
2013-03-08 20:31:00,30.7,20.0,30.34,West,275,2.7,2.7,64,0.00,,SCT270,0.00,VWS V14.01,2013-03-09 01:31:00,
2013-03-08 20:36:00,30.6,19.9,30.34,West,260,2.2,3.6,64,0.00,,SCT270,0.00,VWS V14.01,2013-03-09 01:36:00,
2013-03-08 20:41:00,30.6,19.9,30.34,West,260,2.7,2.7,64,0.00,,SCT270,0.00,VWS V14.01,2013-03-09 01:41:00,
2013-03-08 20:46:00,30.4,19.7,30.34,West,260,2.7,2.7,64,0.00,,SCT270,0.00,VWS V14.01,2013-03-09 01:46:00,
2013-03-08 20:51:00,30.2,19.9,30.34,West,260,2.2,2.2,65,0.00,,SCT270,0.00,VWS V14.01,2013-03-09 01:51:00,
2013-03-08 20:56:00,30.2,20.2,30.34,West,260,2.2,2.7,66,0.00,,SCT270,0.00,VWS V14.01,2013-03-09 01:56:00,
2013-03-08 21:01:00,30.0,20.0,30.34,West,260,2.7,2.7,66,0.00,,SCT270,0.00,VWS V14.01,2013-03-09 02:01:00,
2013-03-08 21:06:00,30.0,20.0,30.34,West,260,2.2,2.7,66,0.00,,SCT270,0.00,VWS V14.01,2013-03-09 02:06:00,
2013-03-08 21:11:00,30.2,20.2,30.34,West,260,2.2,2.2,66,0.00,,SCT270,0.00,VWS V14.01,2013-03-09 02:11:00,
2013-03-08 21:16:00,30.2,20.2,30.34,West,260,0.0,0.0,66,0.00,,SCT270,0.00,VWS V14.01,2013-03-09 02:16:00,
2013-03-08 21:21:00,30.2,20.2,30.34,West,260,2.7,2.7,66,0.00,,SCT270,0.00,VWS V14.01,2013-03-09 02:21:00,
2013-03-08 21:26:00,30.0,20.0,30.34,West,260,2.2,3.1,66,0.00,,SCT270,0.00,VWS V14.01,2013-03-09 02:26:00,
2013-03-08 21:31:00,30.0,20.0,30.34,West,260,2.2,2.7,66,0.00,,FEW038,0.00,VWS V14.01,2013-03-09 02:31:00,
2013-03-08 21:37:00,29.8,19.9,30.34,West,260,2.7,2.7,66,0.00,,FEW038,0.00,VWS V14.01,2013-03-09 02:37:00,
2013-03-08 21:42:00,29.8,19.9,30.34,West,260,2.7,3.1,66,0.00,,FEW038,0.00,VWS V14.01,2013-03-09 02:42:00,
2013-03-08 21:47:00,29.7,20.1,30.34,West,260,3.1,3.1,67,0.00,,FEW038,0.00,VWS V14.01,2013-03-09 02:47:00,
2013-03-08 21:52:00,29.7,20.1,30.34,West,260,2.7,2.7,67,0.00,,FEW038,0.00,VWS V14.01,2013-03-09 02:52:00,
2013-03-08 21:57:00,29.5,19.9,30.34,West,260,2.2,2.7,67,0.00,,FEW038,0.00,VWS V14.01,2013-03-09 02:57:00,
2013-03-08 22:02:00,29.5,19.9,30.34,West,260,2.7,2.7,67,0.00,,FEW038,0.00,VWS V14.01,2013-03-09 03:02:00,
2013-03-08 22:07:00,29.5,19.9,30.34,West,260,2.7,2.7,67,0.00,,FEW038,0.00,VWS V14.01,2013-03-09 03:07:00,
2013-03-08 22:12:00,29.3,19.7,30.34,West,260,2.7,2.7,67,0.00,,FEW038,0.00,VWS V14.01,2013-03-09 03:12:00,
2013-03-08 22:17:00,29.3,20.1,30.34,West,260,2.7,2.7,68,0.00,,FEW038,0.00,VWS V14.01,2013-03-09 03:17:00,
2013-03-08 22:22:00,29.3,20.1,30.34,West,260,3.1,3.6,68,0.00,,FEW038,0.00,VWS V14.01,2013-03-09 03:22:00,
2013-03-08 22:27:00,29.3,20.1,30.34,West,260,0.0,3.6,68,0.00,,FEW038,0.00,VWS V14.01,2013-03-09 03:27:00,
2013-03-08 22:32:00,28.9,19.7,30.34,West,260,2.7,3.1,68,0.00,,CLR,0.00,VWS V14.01,2013-03-09 03:32:00,
2013-03-08 22:37:00,28.9,19.7,30.31,SW,219,3.1,4.9,68,0.00,,CLR,0.00,VWS V14.01,2013-03-09 03:37:00,
2013-03-08 22:42:00,28.9,20.1,30.31,WSW,238,0.0,2.7,69,0.00,,CLR,0.00,VWS V14.01,2013-03-09 03:42:00,
2013-03-08 22:47:00,28.9,20.1,30.31,SW,236,2.2,3.1,69,0.00,,CLR,0.00,VWS V14.01,2013-03-09 03:47:00,
2013-03-08 22:52:00,28.6,19.7,30.34,SW,230,2.7,2.7,69,0.00,,CLR,0.00,VWS V14.01,2013-03-09 03:52:00,
2013-03-08 22:57:00,28.6,19.7,30.34,SW,230,0.0,3.1,69,0.00,,CLR,0.00,VWS V14.01,2013-03-09 03:57:00,
2013-03-08 23:02:00,28.6,19.7,30.34,SW,225,5.4,5.4,69,0.00,,CLR,0.00,VWS V14.01,2013-03-09 04:02:00,
2013-03-08 23:07:00,28.8,20.2,30.34,SW,235,2.7,4.0,70,0.00,,CLR,0.00,VWS V14.01,2013-03-09 04:07:00,
2013-03-08 23:12:00,28.6,20.0,30.34,SW,236,3.1,5.8,70,0.00,,CLR,0.00,VWS V14.01,2013-03-09 04:12:00,
2013-03-08 23:17:00,28.0,19.5,30.34,SW,225,0.0,2.7,70,0.00,,CLR,0.00,VWS V14.01,2013-03-09 04:17:00,
2013-03-08 23:22:00,28.2,20.0,30.31,SW,230,2.7,4.9,71,0.00,,CLR,0.00,VWS V14.01,2013-03-09 04:22:00,
2013-03-08 23:27:00,28.6,20.7,30.31,SW,229,4.0,5.4,72,0.00,,CLR,0.00,VWS V14.01,2013-03-09 04:27:00,
2013-03-08 23:32:00,28.6,20.7,30.31,SW,235,2.7,6.3,72,0.00,,CLR,0.00,VWS V14.01,2013-03-09 04:32:00,
2013-03-08 23:37:00,28.6,21.0,30.31,WSW,241,2.7,5.4,73,0.00,,CLR,0.00,VWS V14.01,2013-03-09 04:37:00,
2013-03-08 23:42:00,28.6,21.0,30.31,SW,234,3.6,6.3,73,0.00,,CLR,0.00,VWS V14.01,2013-03-09 04:42:00,
2013-03-08 23:47:00,28.6,21.4,30.31,SW,231,3.6,4.0,74,0.00,,CLR,0.00,VWS V14.01,2013-03-09 04:47:00,
2013-03-08 23:52:00,28.6,21.4,30.31,SW,227,3.6,5.8,74,0.00,,CLR,0.00,VWS V14.01,2013-03-09 04:52:00,
2013-03-08 23:57:00,28.6,21.4,30.31,SW,217,2.7,5.8,74,0.00,,CLR,0.00,VWS V14.01,2013-03-09 04:57:00,